This is the latest recevied weather packets stored in our database for station/object PD2SKZ-12. If no packets are shown the sender has not sent any weather packets the latest 10 day(s).
| Time | Temp. | Humidity | Pressure | Rain* | Wind** | Luminosity | Snow |
|---|---|---|---|---|---|---|---|
| 1777361845 | 12.78° C | 59% | 1024.2 hPa | 0 mm | - | - | - |
| 1777360645 | 12.22° C | 65% | 1024.1 hPa | 0 mm | - | - | - |
| 1777360345 | 12.22° C | 65% | 1024.1 hPa | 0 mm | - | - | - |
| 1777359745 | 12.22° C | 69% | 1024.1 hPa | 0 mm | - | - | - |
| 1777358865 | 11.11° C | 73% | 1024.2 hPa | 0 mm | - | - | - |
| 1777356145 | 9.44° C | 81% | 1024 hPa | 0 mm | - | - | - |
| 1777354345 | 8.89° C | 83% | 1023.6 hPa | 0 mm | - | - | - |
| 1777353745 | 8.89° C | 82% | 1023.6 hPa | 0 mm | - | - | - |
| 1777352565 | 8.33° C | 82% | 1023.5 hPa | 0 mm | - | - | - |
| 1777352245 | 8.33° C | 82% | 1023.5 hPa | 0 mm | - | - | - |
| 1777351045 | 8.33° C | 81% | 1023.3 hPa | 0 mm | - | - | - |
| 1777348645 | 8.33° C | 79% | 1023.5 hPa | 0 mm | - | - | - |
| 1777347145 | 8.89° C | 79% | 1023.6 hPa | 0 mm | - | - | - |
| 1777342965 | 8.89° C | 77% | 1023.6 hPa | 0 mm | - | - | - |
| 1777342045 | 8.89° C | 76% | 1023.5 hPa | 0 mm | - | - | - |
| 1777341465 | 8.89° C | 76% | 1023.6 hPa | 0 mm | - | - | - |
| 1777340545 | 9.44° C | 75% | 1023.7 hPa | 0 mm | - | - | - |
| 1777339346 | 9.44° C | 73% | 1023.9 hPa | 0 mm | - | - | - |
| 1777337575 | 10° C | 77% | 1023.9 hPa | 0 mm | - | - | - |
| 1777336045 | 10° C | 79% | 1023.9 hPa | 0 mm | - | - | - |
| 1777335446 | 10° C | 80% | 1024 hPa | 0 mm | - | - | - |
| 1777333665 | 10.56° C | 81% | 1023.9 hPa | 0 mm | - | - | - |
| 1777327966 | 11.11° C | 79% | 1023.4 hPa | 0 mm | - | - | - |
| 1777327346 | 11.11° C | 77% | 1023.4 hPa | 0 mm | - | - | - |
| 1777325546 | 11.67° C | 72% | 1023.2 hPa | 0 mm | - | - | - |
* Rain latest hour (hover to see other rain measurements)
** Current wind speed in m/s (hover to see current wind gust speed)